sensor_id;sensor_type;location;lat;lon;timestamp;temperature;humidity
64689;DHT22;62504;46.070;14.492;2023-04-03T00:01:09;11.00;99.90
64689;DHT22;62504;46.070;14.492;2023-04-03T00:03:35;11.00;99.90
64689;DHT22;62504;46.070;14.492;2023-04-03T00:06:02;11.00;99.90
64689;DHT22;62504;46.070;14.492;2023-04-03T00:08:28;10.90;99.90
64689;DHT22;62504;46.070;14.492;2023-04-03T00:10:56;10.90;99.90
64689;DHT22;62504;46.070;14.492;2023-04-03T00:13:23;11.00;99.90
64689;DHT22;62504;46.070;14.492;2023-04-03T00:15:48;10.90;99.90
64689;DHT22;62504;46.070;14.492;2023-04-03T00:18:14;10.80;99.90
64689;DHT22;62504;46.070;14.492;2023-04-03T00:20:40;10.80;99.90
64689;DHT22;62504;46.070;14.492;2023-04-03T00:23:06;10.70;99.90
64689;DHT22;62504;46.070;14.492;2023-04-03T00:25:32;10.60;99.90
64689;DHT22;62504;46.070;14.492;2023-04-03T00:27:58;10.70;99.90
64689;DHT22;62504;46.070;14.492;2023-04-03T00:30:24;10.70;99.90
64689;DHT22;62504;46.070;14.492;2023-04-03T00:32:51;10.60;99.90
64689;DHT22;62504;46.070;14.492;2023-04-03T00:35:18;10.80;99.90
64689;DHT22;62504;46.070;14.492;2023-04-03T00:37:45;10.70;99.90
64689;DHT22;62504;46.070;14.492;2023-04-03T00:40:13;10.70;99.90
64689;DHT22;62504;46.070;14.492;2023-04-03T00:42:40;10.60;99.90
64689;DHT22;62504;46.070;14.492;2023-04-03T00:45:23;10.60;99.90
64689;DHT22;62504;46.070;14.492;2023-04-03T00:47:49;10.70;99.90
64689;DHT22;62504;46.070;14.492;2023-04-03T00:50:15;10.50;99.90
64689;DHT22;62504;46.070;14.492;2023-04-03T00:52:41;10.40;99.90
64689;DHT22;62504;46.070;14.492;2023-04-03T00:55:08;10.60;99.90
64689;DHT22;62504;46.070;14.492;2023-04-03T00:57:35;10.50;99.90
64689;DHT22;62504;46.070;14.492;2023-04-03T01:00:09;10.30;99.90
64689;DHT22;62504;46.070;14.492;2023-04-03T01:02:35;10.30;99.90
64689;DHT22;62504;46.070;14.492;2023-04-03T01:05:02;10.30;99.90
64689;DHT22;62504;46.070;14.492;2023-04-03T01:07:30;10.20;99.90
64689;DHT22;62504;46.070;14.492;2023-04-03T01:09:58;10.20;99.90
64689;DHT22;62504;46.070;14.492;2023-04-03T01:12:34;10.20;99.90
64689;DHT22;62504;46.070;14.492;2023-04-03T01:17:40;10.20;99.90
64689;DHT22;62504;46.070;14.492;2023-04-03T01:23:24;10.10;99.90
64689;DHT22;62504;46.070;14.492;2023-04-03T01:25:51;10.10;99.90
64689;DHT22;62504;46.070;14.492;2023-04-03T01:28:28;10.00;99.90
64689;DHT22;62504;46.070;14.492;2023-04-03T01:33:42;9.90;99.90
64689;DHT22;62504;46.070;14.492;2023-04-03T01:36:08;10.00;99.90
64689;DHT22;62504;46.070;14.492;2023-04-03T01:38:35;10.10;99.90
64689;DHT22;62504;46.070;14.492;2023-04-03T01:41:00;10.10;99.90
64689;DHT22;62504;46.070;14.492;2023-04-03T01:43:26;10.00;99.90
64689;DHT22;62504;46.070;14.492;2023-04-03T01:45:52;9.70;99.90
64689;DHT22;62504;46.070;14.492;2023-04-03T01:48:20;9.70;99.90
64689;DHT22;62504;46.070;14.492;2023-04-03T01:50:46;9.80;99.90
64689;DHT22;62504;46.070;14.492;2023-04-03T01:53:12;9.80;99.90
64689;DHT22;62504;46.070;14.492;2023-04-03T01:55:38;9.70;99.90
64689;DHT22;62504;46.070;14.492;2023-04-03T01:58:04;9.80;99.90
64689;DHT22;62504;46.070;14.492;2023-04-03T02:00:29;9.70;99.90
64689;DHT22;62504;46.070;14.492;2023-04-03T02:02:56;9.70;99.90
64689;DHT22;62504;46.070;14.492;2023-04-03T02:05:22;9.60;99.90
64689;DHT22;62504;46.070;14.492;2023-04-03T02:07:48;9.60;99.90
64689;DHT22;62504;46.070;14.492;2023-04-03T02:10:13;9.50;99.90
64689;DHT22;62504;46.070;14.492;2023-04-03T02:12:39;9.60;99.90
64689;DHT22;62504;46.070;14.492;2023-04-03T02:15:05;9.60;99.90
64689;DHT22;62504;46.070;14.492;2023-04-03T02:17:31;9.40;99.90
64689;DHT22;62504;46.070;14.492;2023-04-03T02:19:57;9.50;99.90
64689;DHT22;62504;46.070;14.492;2023-04-03T02:22:22;9.50;99.90
64689;DHT22;62504;46.070;14.492;2023-04-03T02:24:48;9.60;99.90
64689;DHT22;62504;46.070;14.492;2023-04-03T02:27:14;9.50;99.90
64689;DHT22;62504;46.070;14.492;2023-04-03T02:29:40;9.50;99.90
64689;DHT22;62504;46.070;14.492;2023-04-03T02:32:05;9.40;99.90
64689;DHT22;62504;46.070;14.492;2023-04-03T02:34:31;9.30;99.90
64689;DHT22;62504;46.070;14.492;2023-04-03T02:36:57;9.20;99.90
64689;DHT22;62504;46.070;14.492;2023-04-03T02:39:22;9.20;99.90
64689;DHT22;62504;46.070;14.492;2023-04-03T02:41:48;9.30;99.90
64689;DHT22;62504;46.070;14.492;2023-04-03T02:44:14;9.30;99.90
64689;DHT22;62504;46.070;14.492;2023-04-03T02:46:39;9.20;99.90
64689;DHT22;62504;46.070;14.492;2023-04-03T02:49:05;9.00;99.90
64689;DHT22;62504;46.070;14.492;2023-04-03T02:51:32;8.90;99.90
64689;DHT22;62504;46.070;14.492;2023-04-03T02:53:57;9.00;99.90
64689;DHT22;62504;46.070;14.492;2023-04-03T02:56:23;8.70;99.90
64689;DHT22;62504;46.070;14.492;2023-04-03T02:58:49;8.90;99.90
64689;DHT22;62504;46.070;14.492;2023-04-03T03:01:14;8.70;99.90
64689;DHT22;62504;46.070;14.492;2023-04-03T03:03:40;8.60;99.90
64689;DHT22;62504;46.070;14.492;2023-04-03T03:06:16;8.70;99.90
64689;DHT22;62504;46.070;14.492;2023-04-03T03:08:43;8.60;99.90
64689;DHT22;62504;46.070;14.492;2023-04-03T03:11:09;8.30;99.90
64689;DHT22;62504;46.070;14.492;2023-04-03T03:13:35;8.10;99.90
64689;DHT22;62504;46.070;14.492;2023-04-03T03:16:02;8.00;99.90
64689;DHT22;62504;46.070;14.492;2023-04-03T03:18:31;8.20;99.90
64689;DHT22;62504;46.070;14.492;2023-04-03T03:20:58;7.90;99.90
64689;DHT22;62504;46.070;14.492;2023-04-03T03:23:26;8.00;99.90
64689;DHT22;62504;46.070;14.492;2023-04-03T03:26:01;8.20;99.90
64689;DHT22;62504;46.070;14.492;2023-04-03T03:28:27;8.10;99.90
64689;DHT22;62504;46.070;14.492;2023-04-03T03:30:54;8.10;99.90
64689;DHT22;62504;46.070;14.492;2023-04-03T03:33:20;7.90;99.90
64689;DHT22;62504;46.070;14.492;2023-04-03T03:35:45;7.60;99.90
64689;DHT22;62504;46.070;14.492;2023-04-03T03:38:11;7.70;99.90
64689;DHT22;62504;46.070;14.492;2023-04-03T03:40:37;7.60;99.90
64689;DHT22;62504;46.070;14.492;2023-04-03T03:43:03;7.90;99.90
64689;DHT22;62504;46.070;14.492;2023-04-03T03:45:29;7.80;99.90
64689;DHT22;62504;46.070;14.492;2023-04-03T03:47:54;7.60;99.90
64689;DHT22;62504;46.070;14.492;2023-04-03T03:50:20;7.60;99.90
64689;DHT22;62504;46.070;14.492;2023-04-03T03:52:46;7.60;99.90
64689;DHT22;62504;46.070;14.492;2023-04-03T03:55:12;7.50;99.90
64689;DHT22;62504;46.070;14.492;2023-04-03T03:57:37;7.30;99.90
64689;DHT22;62504;46.070;14.492;2023-04-03T04:00:03;7.30;99.90
64689;DHT22;62504;46.070;14.492;2023-04-03T04:02:29;7.40;99.90
64689;DHT22;62504;46.070;14.492;2023-04-03T04:04:56;7.00;99.90
64689;DHT22;62504;46.070;14.492;2023-04-03T04:07:21;7.10;99.90
64689;DHT22;62504;46.070;14.492;2023-04-03T04:09:47;7.40;99.90
64689;DHT22;62504;46.070;14.492;2023-04-03T04:12:13;7.40;99.90
64689;DHT22;62504;46.070;14.492;2023-04-03T04:14:39;7.40;99.90
64689;DHT22;62504;46.070;14.492;2023-04-03T04:17:04;7.40;99.90
64689;DHT22;62504;46.070;14.492;2023-04-03T04:19:30;7.50;99.90
64689;DHT22;62504;46.070;14.492;2023-04-03T04:21:56;7.50;99.90
64689;DHT22;62504;46.070;14.492;2023-04-03T04:24:21;7.50;99.90
64689;DHT22;62504;46.070;14.492;2023-04-03T04:26:48;7.40;99.90
64689;DHT22;62504;46.070;14.492;2023-04-03T04:29:14;7.40;99.90
64689;DHT22;62504;46.070;14.492;2023-04-03T04:31:39;7.10;99.90
64689;DHT22;62504;46.070;14.492;2023-04-03T04:34:05;7.10;99.90
64689;DHT22;62504;46.070;14.492;2023-04-03T04:36:31;7.20;99.90
64689;DHT22;62504;46.070;14.492;2023-04-03T04:38:56;7.20;99.90
64689;DHT22;62504;46.070;14.492;2023-04-03T04:41:23;7.20;99.90
64689;DHT22;62504;46.070;14.492;2023-04-03T04:43:50;7.30;99.90
64689;DHT22;62504;46.070;14.492;2023-04-03T04:46:16;7.30;99.90
64689;DHT22;62504;46.070;14.492;2023-04-03T04:48:41;7.20;99.90
64689;DHT22;62504;46.070;14.492;2023-04-03T04:51:07;7.00;99.90
64689;DHT22;62504;46.070;14.492;2023-04-03T04:53:33;6.90;99.90
64689;DHT22;62504;46.070;14.492;2023-04-03T04:55:59;7.10;99.90
64689;DHT22;62504;46.070;14.492;2023-04-03T04:58:25;7.00;99.90
64689;DHT22;62504;46.070;14.492;2023-04-03T05:00:59;7.10;99.90
64689;DHT22;62504;46.070;14.492;2023-04-03T05:03:25;7.10;99.90
64689;DHT22;62504;46.070;14.492;2023-04-03T05:05:51;7.00;99.90
64689;DHT22;62504;46.070;14.492;2023-04-03T05:08:16;7.10;99.90
64689;DHT22;62504;46.070;14.492;2023-04-03T05:10:42;7.30;99.90
64689;DHT22;62504;46.070;14.492;2023-04-03T05:13:08;7.30;99.90
64689;DHT22;62504;46.070;14.492;2023-04-03T05:15:33;7.20;99.90
64689;DHT22;62504;46.070;14.492;2023-04-03T05:17:59;7.30;99.90
64689;DHT22;62504;46.070;14.492;2023-04-03T05:20:24;7.40;99.90
64689;DHT22;62504;46.070;14.492;2023-04-03T05:22:50;7.40;99.90
64689;DHT22;62504;46.070;14.492;2023-04-03T05:25:16;7.10;99.90
64689;DHT22;62504;46.070;14.492;2023-04-03T05:27:41;7.00;99.90
64689;DHT22;62504;46.070;14.492;2023-04-03T05:30:08;7.20;99.90
64689;DHT22;62504;46.070;14.492;2023-04-03T05:32:33;7.00;99.90
64689;DHT22;62504;46.070;14.492;2023-04-03T05:34:59;7.10;99.90
64689;DHT22;62504;46.070;14.492;2023-04-03T05:37:25;7.00;99.90
64689;DHT22;62504;46.070;14.492;2023-04-03T05:39:50;6.90;99.90
64689;DHT22;62504;46.070;14.492;2023-04-03T05:42:16;6.90;99.90
64689;DHT22;62504;46.070;14.492;2023-04-03T05:44:42;6.80;99.90
64689;DHT22;62504;46.070;14.492;2023-04-03T05:47:08;7.00;99.90
64689;DHT22;62504;46.070;14.492;2023-04-03T05:49:34;7.40;99.90
64689;DHT22;62504;46.070;14.492;2023-04-03T05:52:00;7.60;99.90
64689;DHT22;62504;46.070;14.492;2023-04-03T05:54:30;7.70;99.90
64689;DHT22;62504;46.070;14.492;2023-04-03T05:56:56;7.60;99.90
64689;DHT22;62504;46.070;14.492;2023-04-03T05:59:21;7.60;99.90
64689;DHT22;62504;46.070;14.492;2023-04-03T06:01:47;7.70;99.90
64689;DHT22;62504;46.070;14.492;2023-04-03T06:04:13;7.90;99.90
64689;DHT22;62504;46.070;14.492;2023-04-03T06:09:10;8.00;99.90
64689;DHT22;62504;46.070;14.492;2023-04-03T06:11:35;8.00;99.90
64689;DHT22;62504;46.070;14.492;2023-04-03T06:14:01;8.10;99.90
64689;DHT22;62504;46.070;14.492;2023-04-03T06:16:28;8.20;99.90
64689;DHT22;62504;46.070;14.492;2023-04-03T06:18:54;8.50;99.90
64689;DHT22;62504;46.070;14.492;2023-04-03T06:21:21;8.70;99.90
64689;DHT22;62504;46.070;14.492;2023-04-03T06:23:47;8.60;99.90
64689;DHT22;62504;46.070;14.492;2023-04-03T06:26:12;8.40;99.90
64689;DHT22;62504;46.070;14.492;2023-04-03T06:28:38;8.60;99.90
64689;DHT22;62504;46.070;14.492;2023-04-03T06:31:03;8.50;99.90
64689;DHT22;62504;46.070;14.492;2023-04-03T06:33:29;8.80;99.90
64689;DHT22;62504;46.070;14.492;2023-04-03T06:35:57;9.00;99.90
64689;DHT22;62504;46.070;14.492;2023-04-03T06:38:23;8.50;99.90
64689;DHT22;62504;46.070;14.492;2023-04-03T06:40:48;8.80;99.90
64689;DHT22;62504;46.070;14.492;2023-04-03T06:43:14;8.70;99.90
64689;DHT22;62504;46.070;14.492;2023-04-03T06:45:40;9.10;99.90
64689;DHT22;62504;46.070;14.492;2023-04-03T06:48:06;9.30;99.90
64689;DHT22;62504;46.070;14.492;2023-04-03T06:50:32;9.20;99.90
64689;DHT22;62504;46.070;14.492;2023-04-03T06:52:57;9.60;99.90
64689;DHT22;62504;46.070;14.492;2023-04-03T06:55:23;9.50;99.90
64689;DHT22;62504;46.070;14.492;2023-04-03T06:57:49;9.50;99.90
64689;DHT22;62504;46.070;14.492;2023-04-03T07:00:15;9.70;99.90
64689;DHT22;62504;46.070;14.492;2023-04-03T07:02:41;9.70;99.90
64689;DHT22;62504;46.070;14.492;2023-04-03T07:05:07;9.90;99.90
64689;DHT22;62504;46.070;14.492;2023-04-03T07:07:34;9.90;99.90
64689;DHT22;62504;46.070;14.492;2023-04-03T07:10:00;10.10;99.90
64689;DHT22;62504;46.070;14.492;2023-04-03T07:12:26;10.50;99.90
64689;DHT22;62504;46.070;14.492;2023-04-03T07:14:51;9.90;99.90
64689;DHT22;62504;46.070;14.492;2023-04-03T07:17:17;9.80;99.90
64689;DHT22;62504;46.070;14.492;2023-04-03T07:19:43;9.70;99.90
64689;DHT22;62504;46.070;14.492;2023-04-03T07:22:09;9.80;99.90
64689;DHT22;62504;46.070;14.492;2023-04-03T07:24:36;10.20;99.90
64689;DHT22;62504;46.070;14.492;2023-04-03T07:27:02;9.90;99.90
64689;DHT22;62504;46.070;14.492;2023-04-03T07:29:29;9.80;99.80
64689;DHT22;62504;46.070;14.492;2023-04-03T07:31:55;10.00;99.90
64689;DHT22;62504;46.070;14.492;2023-04-03T07:34:21;9.90;99.60
64689;DHT22;62504;46.070;14.492;2023-04-03T07:36:47;9.80;99.50
64689;DHT22;62504;46.070;14.492;2023-04-03T07:39:13;10.20;98.90
64689;DHT22;62504;46.070;14.492;2023-04-03T07:41:39;10.60;98.30
64689;DHT22;62504;46.070;14.492;2023-04-03T07:44:05;10.70;97.90
64689;DHT22;62504;46.070;14.492;2023-04-03T07:46:31;10.40;97.00
64689;DHT22;62504;46.070;14.492;2023-04-03T07:48:57;10.40;96.60
64689;DHT22;62504;46.070;14.492;2023-04-03T07:51:22;10.70;96.10
64689;DHT22;62504;46.070;14.492;2023-04-03T07:53:50;10.90;95.40
64689;DHT22;62504;46.070;14.492;2023-04-03T07:56:16;10.60;95.30
64689;DHT22;62504;46.070;14.492;2023-04-03T07:58:42;10.60;95.50
64689;DHT22;62504;46.070;14.492;2023-04-03T08:01:08;10.90;95.40
64689;DHT22;62504;46.070;14.492;2023-04-03T08:03:34;11.00;95.00
64689;DHT22;62504;46.070;14.492;2023-04-03T08:06:05;11.30;94.30
64689;DHT22;62504;46.070;14.492;2023-04-03T08:08:32;10.90;94.40
64689;DHT22;62504;46.070;14.492;2023-04-03T08:10:59;11.30;93.80
64689;DHT22;62504;46.070;14.492;2023-04-03T08:13:25;11.90;93.10
64689;DHT22;62504;46.070;14.492;2023-04-03T08:15:51;11.30;92.90
64689;DHT22;62504;46.070;14.492;2023-04-03T08:18:17;11.40;92.60
64689;DHT22;62504;46.070;14.492;2023-04-03T08:20:44;11.10;93.10
64689;DHT22;62504;46.070;14.492;2023-04-03T08:23:10;11.20;92.80
64689;DHT22;62504;46.070;14.492;2023-04-03T08:25:43;11.40;92.40
64689;DHT22;62504;46.070;14.492;2023-04-03T08:28:10;12.00;92.20
64689;DHT22;62504;46.070;14.492;2023-04-03T08:30:39;12.10;91.30
64689;DHT22;62504;46.070;14.492;2023-04-03T08:33:05;11.50;91.20
64689;DHT22;62504;46.070;14.492;2023-04-03T08:35:31;11.70;91.50
64689;DHT22;62504;46.070;14.492;2023-04-03T08:37:57;11.60;90.70
64689;DHT22;62504;46.070;14.492;2023-04-03T08:40:23;12.10;91.20
64689;DHT22;62504;46.070;14.492;2023-04-03T08:47:49;12.10;90.70
64689;DHT22;62504;46.070;14.492;2023-04-03T08:50:20;12.00;90.90
64689;DHT22;62504;46.070;14.492;2023-04-03T08:52:56;12.40;89.90
64689;DHT22;62504;46.070;14.492;2023-04-03T08:55:31;12.40;90.30
64689;DHT22;62504;46.070;14.492;2023-04-03T08:58:04;11.80;88.30
64689;DHT22;62504;46.070;14.492;2023-04-03T09:00:57;11.90;89.60
64689;DHT22;62504;46.070;14.492;2023-04-03T09:03:21;12.00;88.80
64689;DHT22;62504;46.070;14.492;2023-04-03T09:06:03;11.60;87.70
64689;DHT22;62504;46.070;14.492;2023-04-03T09:08:39;11.60;87.60
64689;DHT22;62504;46.070;14.492;2023-04-03T09:11:23;11.60;88.40
64689;DHT22;62504;46.070;14.492;2023-04-03T09:16:38;11.80;87.80
64689;DHT22;62504;46.070;14.492;2023-04-03T09:19:32;12.00;87.30
64689;DHT22;62504;46.070;14.492;2023-04-03T09:22:21;11.90;86.80
64689;DHT22;62504;46.070;14.492;2023-04-03T09:27:26;12.40;85.30
64689;DHT22;62504;46.070;14.492;2023-04-03T09:29:54;12.00;85.80
64689;DHT22;62504;46.070;14.492;2023-04-03T09:32:34;12.10;85.70
64689;DHT22;62504;46.070;14.492;2023-04-03T09:35:04;12.20;86.00
64689;DHT22;62504;46.070;14.492;2023-04-03T09:37:42;12.20;84.30
64689;DHT22;62504;46.070;14.492;2023-04-03T09:43:39;12.10;84.10
64689;DHT22;62504;46.070;14.492;2023-04-03T09:45:40;11.90;83.80
64689;DHT22;62504;46.070;14.492;2023-04-03T09:50:33;11.80;85.50
64689;DHT22;62504;46.070;14.492;2023-04-03T09:53:05;12.10;85.80
64689;DHT22;62504;46.070;14.492;2023-04-03T09:55:31;11.90;84.00
64689;DHT22;62504;46.070;14.492;2023-04-03T09:57:59;12.10;83.50
64689;DHT22;62504;46.070;14.492;2023-04-03T10:02:56;12.00;83.50
64689;DHT22;62504;46.070;14.492;2023-04-03T10:05:37;11.80;83.30
64689;DHT22;62504;46.070;14.492;2023-04-03T10:10:48;11.90;85.70
64689;DHT22;62504;46.070;14.492;2023-04-03T10:13:30;11.80;83.30
64689;DHT22;62504;46.070;14.492;2023-04-03T10:18:39;11.90;82.40
64689;DHT22;62504;46.070;14.492;2023-04-03T10:27:22;12.00;80.50
64689;DHT22;62504;46.070;14.492;2023-04-03T10:34:46;12.30;82.30
64689;DHT22;62504;46.070;14.492;2023-04-03T10:37:26;11.90;80.40
64689;DHT22;62504;46.070;14.492;2023-04-03T10:42:51;11.80;80.20
64689;DHT22;62504;46.070;14.492;2023-04-03T10:46:13;11.80;80.90
64689;DHT22;62504;46.070;14.492;2023-04-03T10:51:00;11.70;81.10
64689;DHT22;62504;46.070;14.492;2023-04-03T10:59:11;11.70;82.20
64689;DHT22;62504;46.070;14.492;2023-04-03T11:01:41;12.00;82.50
64689;DHT22;62504;46.070;14.492;2023-04-03T11:04:09;12.00;81.90
64689;DHT22;62504;46.070;14.492;2023-04-03T11:06:39;11.80;81.60
64689;DHT22;62504;46.070;14.492;2023-04-03T11:09:34;11.90;80.30
64689;DHT22;62504;46.070;14.492;2023-04-03T11:14:51;11.60;80.30
64689;DHT22;62504;46.070;14.492;2023-04-03T11:17:22;11.70;81.00
64689;DHT22;62504;46.070;14.492;2023-04-03T11:22:33;11.40;81.30
64689;DHT22;62504;46.070;14.492;2023-04-03T11:27:49;11.60;80.60
64689;DHT22;62504;46.070;14.492;2023-04-03T11:30:28;11.50;81.90
64689;DHT22;62504;46.070;14.492;2023-04-03T11:35:26;11.40;78.60
64689;DHT22;62504;46.070;14.492;2023-04-03T11:37:53;11.40;80.20
64689;DHT22;62504;46.070;14.492;2023-04-03T11:42:51;11.50;80.20
64689;DHT22;62504;46.070;14.492;2023-04-03T11:45:32;11.50;81.30
64689;DHT22;62504;46.070;14.492;2023-04-03T11:50:47;11.70;81.30
64689;DHT22;62504;46.070;14.492;2023-04-03T11:58:19;11.50;82.10
64689;DHT22;62504;46.070;14.492;2023-04-03T12:16:19;11.40;82.70
64689;DHT22;62504;46.070;14.492;2023-04-03T12:21:17;11.60;82.00
64689;DHT22;62504;46.070;14.492;2023-04-03T12:26:30;11.60;81.70
64689;DHT22;62504;46.070;14.492;2023-04-03T12:28:56;11.60;82.70
64689;DHT22;62504;46.070;14.492;2023-04-03T12:31:25;11.60;81.40
64689;DHT22;62504;46.070;14.492;2023-04-03T12:40:05;11.40;82.20
64689;DHT22;62504;46.070;14.492;2023-04-03T12:45:24;11.50;81.50
64689;DHT22;62504;46.070;14.492;2023-04-03T12:47:53;11.50;81.40
64689;DHT22;62504;46.070;14.492;2023-04-03T12:50:28;11.40;80.70
64689;DHT22;62504;46.070;14.492;2023-04-03T12:53:13;11.70;83.00
64689;DHT22;62504;46.070;14.492;2023-04-03T12:55:42;11.30;79.60
64689;DHT22;62504;46.070;14.492;2023-04-03T12:58:34;11.40;80.80
64689;DHT22;62504;46.070;14.492;2023-04-03T13:01:04;11.70;81.40
64689;DHT22;62504;46.070;14.492;2023-04-03T13:03:41;11.90;80.80
64689;DHT22;62504;46.070;14.492;2023-04-03T13:06:14;11.60;81.00
64689;DHT22;62504;46.070;14.492;2023-04-03T13:08:50;11.70;79.70
64689;DHT22;62504;46.070;14.492;2023-04-03T13:11:15;11.60;80.20
64689;DHT22;62504;46.070;14.492;2023-04-03T13:13:54;11.60;80.80
64689;DHT22;62504;46.070;14.492;2023-04-03T13:16:20;11.70;80.20
64689;DHT22;62504;46.070;14.492;2023-04-03T13:18:51;11.50;79.60
64689;DHT22;62504;46.070;14.492;2023-04-03T13:21:21;11.50;80.30
64689;DHT22;62504;46.070;14.492;2023-04-03T13:23:49;11.50;79.80
64689;DHT22;62504;46.070;14.492;2023-04-03T13:26:18;11.40;80.30
64689;DHT22;62504;46.070;14.492;2023-04-03T13:28:45;11.40;80.00
64689;DHT22;62504;46.070;14.492;2023-04-03T13:31:33;11.30;79.50
64689;DHT22;62504;46.070;14.492;2023-04-03T13:34:15;11.20;79.60
64689;DHT22;62504;46.070;14.492;2023-04-03T13:39:22;11.30;79.70
64689;DHT22;62504;46.070;14.492;2023-04-03T13:41:55;11.30;79.00
64689;DHT22;62504;46.070;14.492;2023-04-03T13:46:48;11.30;79.00
64689;DHT22;62504;46.070;14.492;2023-04-03T13:49:27;11.40;79.20
64689;DHT22;62504;46.070;14.492;2023-04-03T13:51:54;11.40;79.00
64689;DHT22;62504;46.070;14.492;2023-04-03T13:54:24;11.40;78.50
64689;DHT22;62504;46.070;14.492;2023-04-03T13:56:57;11.50;78.50
64689;DHT22;62504;46.070;14.492;2023-04-03T13:59:28;11.50;78.40
64689;DHT22;62504;46.070;14.492;2023-04-03T14:04:26;11.50;78.80
64689;DHT22;62504;46.070;14.492;2023-04-03T14:06:54;11.60;78.30
64689;DHT22;62504;46.070;14.492;2023-04-03T14:09:21;11.60;78.50
64689;DHT22;62504;46.070;14.492;2023-04-03T14:11:49;11.50;78.20
64689;DHT22;62504;46.070;14.492;2023-04-03T14:14:20;11.60;78.60
64689;DHT22;62504;46.070;14.492;2023-04-03T14:16:50;11.40;78.20
64689;DHT22;62504;46.070;14.492;2023-04-03T14:19:28;11.30;78.70
64689;DHT22;62504;46.070;14.492;2023-04-03T14:21:55;11.40;77.50
64689;DHT22;62504;46.070;14.492;2023-04-03T14:24:21;11.20;77.50
64689;DHT22;62504;46.070;14.492;2023-04-03T14:26:49;11.30;78.60
64689;DHT22;62504;46.070;14.492;2023-04-03T14:29:15;11.30;76.80
64689;DHT22;62504;46.070;14.492;2023-04-03T14:31:43;11.40;79.80
64689;DHT22;62504;46.070;14.492;2023-04-03T14:34:14;11.10;77.30
64689;DHT22;62504;46.070;14.492;2023-04-03T14:36:42;11.40;78.20
64689;DHT22;62504;46.070;14.492;2023-04-03T14:39:16;11.40;78.10
64689;DHT22;62504;46.070;14.492;2023-04-03T14:41:43;11.50;77.40
64689;DHT22;62504;46.070;14.492;2023-04-03T14:44:09;11.40;78.40
64689;DHT22;62504;46.070;14.492;2023-04-03T14:46:39;11.50;78.50
64689;DHT22;62504;46.070;14.492;2023-04-03T14:49:21;11.50;77.60
64689;DHT22;62504;46.070;14.492;2023-04-03T14:51:47;11.40;78.90
64689;DHT22;62504;46.070;14.492;2023-04-03T14:54:19;11.40;79.00
64689;DHT22;62504;46.070;14.492;2023-04-03T14:56:51;11.40;77.70
64689;DHT22;62504;46.070;14.492;2023-04-03T14:59:17;11.30;77.60
64689;DHT22;62504;46.070;14.492;2023-04-03T15:01:45;11.30;78.00
64689;DHT22;62504;46.070;14.492;2023-04-03T15:04:13;11.40;78.40
64689;DHT22;62504;46.070;14.492;2023-04-03T15:06:40;11.40;78.50
64689;DHT22;62504;46.070;14.492;2023-04-03T15:09:23;11.30;78.90
64689;DHT22;62504;46.070;14.492;2023-04-03T15:11:49;11.20;78.80
64689;DHT22;62504;46.070;14.492;2023-04-03T15:14:16;11.30;79.20
64689;DHT22;62504;46.070;14.492;2023-04-03T15:16:41;11.30;79.40
64689;DHT22;62504;46.070;14.492;2023-04-03T15:19:07;11.40;79.20
64689;DHT22;62504;46.070;14.492;2023-04-03T15:21:33;11.40;79.00
64689;DHT22;62504;46.070;14.492;2023-04-03T15:23:58;11.20;78.20
64689;DHT22;62504;46.070;14.492;2023-04-03T15:26:24;11.10;78.70
64689;DHT22;62504;46.070;14.492;2023-04-03T15:28:51;11.20;79.10
64689;DHT22;62504;46.070;14.492;2023-04-03T15:31:16;11.00;78.70
64689;DHT22;62504;46.070;14.492;2023-04-03T15:33:42;11.00;78.70
64689;DHT22;62504;46.070;14.492;2023-04-03T15:36:08;10.80;78.70
64689;DHT22;62504;46.070;14.492;2023-04-03T15:38:34;10.90;79.70
64689;DHT22;62504;46.070;14.492;2023-04-03T15:41:00;10.90;80.30
64689;DHT22;62504;46.070;14.492;2023-04-03T15:43:26;11.00;80.20
64689;DHT22;62504;46.070;14.492;2023-04-03T15:45:52;11.00;80.00
64689;DHT22;62504;46.070;14.492;2023-04-03T15:48:20;10.90;80.10
64689;DHT22;62504;46.070;14.492;2023-04-03T15:50:46;10.70;79.10
64689;DHT22;62504;46.070;14.492;2023-04-03T15:53:11;10.80;79.90
64689;DHT22;62504;46.070;14.492;2023-04-03T15:55:37;10.90;79.50
64689;DHT22;62504;46.070;14.492;2023-04-03T15:58:03;10.80;79.10
64689;DHT22;62504;46.070;14.492;2023-04-03T16:00:30;10.70;79.70
64689;DHT22;62504;46.070;14.492;2023-04-03T16:02:59;10.70;80.80
64689;DHT22;62504;46.070;14.492;2023-04-03T16:05:27;10.70;81.20
64689;DHT22;62504;46.070;14.492;2023-04-03T16:07:52;10.60;80.60
64689;DHT22;62504;46.070;14.492;2023-04-03T16:10:19;10.50;80.90
64689;DHT22;62504;46.070;14.492;2023-04-03T16:12:45;10.50;80.60
64689;DHT22;62504;46.070;14.492;2023-04-03T16:15:11;10.50;80.90
64689;DHT22;62504;46.070;14.492;2023-04-03T16:17:38;10.70;81.00
64689;DHT22;62504;46.070;14.492;2023-04-03T16:20:06;10.40;80.40
64689;DHT22;62504;46.070;14.492;2023-04-03T16:22:32;10.50;80.70
64689;DHT22;62504;46.070;14.492;2023-04-03T16:24:58;10.40;79.60
64689;DHT22;62504;46.070;14.492;2023-04-03T16:27:24;10.20;79.10
64689;DHT22;62504;46.070;14.492;2023-04-03T16:29:54;10.30;80.50
64689;DHT22;62504;46.070;14.492;2023-04-03T16:32:20;10.20;79.70
64689;DHT22;62504;46.070;14.492;2023-04-03T16:34:46;10.20;79.70
64689;DHT22;62504;46.070;14.492;2023-04-03T16:37:12;10.20;79.80
64689;DHT22;62504;46.070;14.492;2023-04-03T16:39:37;10.10;80.00
64689;DHT22;62504;46.070;14.492;2023-04-03T16:42:03;10.10;80.60
64689;DHT22;62504;46.070;14.492;2023-04-03T16:44:29;10.10;80.80
64689;DHT22;62504;46.070;14.492;2023-04-03T16:46:54;10.00;81.20
64689;DHT22;62504;46.070;14.492;2023-04-03T16:49:20;10.00;81.50
64689;DHT22;62504;46.070;14.492;2023-04-03T16:51:47;9.90;81.40
64689;DHT22;62504;46.070;14.492;2023-04-03T16:54:13;9.90;81.40
64689;DHT22;62504;46.070;14.492;2023-04-03T16:56:39;9.80;81.00
64689;DHT22;62504;46.070;14.492;2023-04-03T16:59:05;9.70;80.50
64689;DHT22;62504;46.070;14.492;2023-04-03T17:01:31;9.70;80.50
64689;DHT22;62504;46.070;14.492;2023-04-03T17:03:57;9.70;81.10
64689;DHT22;62504;46.070;14.492;2023-04-03T17:06:23;9.60;80.50
64689;DHT22;62504;46.070;14.492;2023-04-03T17:08:50;9.60;80.50
64689;DHT22;62504;46.070;14.492;2023-04-03T17:11:17;9.50;82.30
64689;DHT22;62504;46.070;14.492;2023-04-03T17:13:43;9.50;81.50
64689;DHT22;62504;46.070;14.492;2023-04-03T17:16:12;9.30;81.20
64689;DHT22;62504;46.070;14.492;2023-04-03T17:18:39;9.30;81.40
64689;DHT22;62504;46.070;14.492;2023-04-03T17:21:05;9.30;81.40
64689;DHT22;62504;46.070;14.492;2023-04-03T17:23:31;9.20;81.90